Terminal Aerodrome Forecast
Issued by NWS

Home | Current Version | Previous Version | Text Only | Print | Product List | Glossary Off
Versions: 1 2 3 4 5 6 7 8 9 10 11 12

444
FTUS43 KMPX 302324
TAFRNH
TAF
KRNH 302324Z 0100/0124 04012KT P6SM OVC060
     FM010200 04009KT P6SM SCT060 BKN150
     FM012200 03007KT P6SM SKC=

USA.gov is the U.S. government's official web portal to all federal, state and local government web resources and services.